Webcam

2018/12/15 12:20 EBBR 151220Z 15009KT 9999 BKN033 01/M05 Q1021 NOSIG

Webcam

--- Refresh now ---